Seattle, Washington
Current Conditions -  °F | °C
As of 8:12 PM on Wednesday 17 Dec 2014 (Local Time) from KBFI Reporting Station
Light Rain Light Rain  
Wind Chill: 48°   Ceiling: 2800
Heat Index: 48°   Visibility: 6mi
Dew Point: 45°   Wind: 0mph
Humidity: 87%   Direction: NA
Pressure: 29.91"   Gusts: NA
Location:  47.6°N, 122.32°W
Report Text: KBFI 180412Z 00000KT 6SM -RA BKN028 BKN035 OVC043 09/07 A2991 RMK AO2 P0001
Loading
Personal Weather Stations






























Interactive Weather Map New forecast layout! Learn more

10-Day Weather Forecast

Advertisements
Track Severe Weather on mobile